Flight Track Log - Related Links

Times and Time Zones

All times are in EDT time to prevent confusion due to time zone crossing. See the N8299W flight status page for this flight to view local times or setup timezone preferences in your user account.

Time Position Orientation Groundspeed Altitude Reporting Facility
EDT Latitude Longitude Course Direction KTS MPH feet Rate Location/Type
Mon 05:53:59 PM 38.9833 -76.2333 57° Northeast 135 155 4,200  Level Potomac TRACON
Mon 05:54:59 PM 39.0167 -76.2000 38° Northeast 123 142 5,000 700 Climbing Potomac TRACON
Mon 05:55:59 PM 39.0333 -76.1667 57° Northeast 132 152 5,600 298 Climbing Potomac TRACON
Mon 05:57:00 PM 39.0667 -76.1167 49° Northeast 158 182 5,600 -50 Level Potomac TRACON
Mon 05:58:00 PM 39.1342 -76.0782 50° Northeast  Level Estimated
Mon 05:58:00 PM 39.0833 -76.0833 57° Northeast 162 186 5,500  Level Potomac TRACON
Mon 05:59:00 PM 39.1167 -76.0333 49° Northeast 161 185 5,500  Level Potomac TRACON
Mon 06:00:51 PM 39.1667 -75.9500 52° Northeast 162 186 5,500  Level Philadelphia TRACON
Mon 06:01:45 PM 39.2000 -75.9167 38° Northeast 161 185 5,500  Level Philadelphia TRACON
Mon 06:02:51 PM 39.2333 -75.8667 49° Northeast 157 181 5,500  Level Philadelphia TRACON
Mon 06:03:45 PM 39.2500 -75.8167 67° East 159 183 5,500  Level Philadelphia TRACON
Mon 06:05:00 PM 39.2879 -75.7694 44° Northeast  Level FlightAware Approximate
Mon 06:05:40 PM 39.3000 -75.7333 44° Northeast 158 182 5,500  Level Philadelphia TRACON
Mon 06:06:57 PM 39.3333 -75.6833 49° Northeast 158 182 5,500  Level Philadelphia TRACON
Mon 06:08:04 PM 39.3667 -75.6333 49° Northeast 156 180 5,500  Level Philadelphia TRACON
Mon 06:08:46 PM 39.3833 -75.6000 57° Northeast 157 181 5,500  Level Philadelphia TRACON
Mon 06:09:46 PM 39.4167 -75.5667 38° Northeast 157 181 5,500 -190 Level Philadelphia TRACON
Mon 06:10:52 PM 39.4500 -75.5167 49° Northeast 165 190 5,100 -429 Descending Philadelphia TRACON
Mon 06:11:52 PM 39.4833 -75.4667 49° Northeast 165 190 4,600 -500 Descending Philadelphia TRACON
Mon 06:12:52 PM 39.5000 -75.4167 67° East 161 185 4,100 -450 Descending Philadelphia TRACON
Mon 06:13:52 PM 39.5333 -75.3833 38° Northeast 156 180 3,700 -238 Descending Philadelphia TRACON
Mon 06:14:58 PM 39.5667 -75.3333 49° Northeast 153 176 3,600 -50 Descending Philadelphia TRACON
Mon 06:15:52 PM 39.6000 -75.3000 38° Northeast 152 175 3,600  Level Philadelphia TRACON
Mon 06:16:58 PM 39.6333 -75.2500 49° Northeast 152 175 3,600  Level Philadelphia TRACON
Mon 06:17:58 PM 39.6500 -75.2167 57° Northeast 150 173 3,600  Level Philadelphia TRACON
Mon 06:18:46 PM 39.6833 -75.1833 38° Northeast 149 171 3,600  Level Philadelphia TRACON
Mon 06:19:46 PM 39.7000 -75.1500 57° Northeast 150 173 3,600  Level Philadelphia TRACON
Mon 06:20:41 PM 39.7333 -75.1000 49° Northeast 151 174 3,600  Level Philadelphia TRACON
Mon 06:21:41 PM 39.7500 -75.0667 57° Northeast 150 173 3,600  Level Philadelphia TRACON
Mon 06:22:41 PM 39.7833 -75.0167 49° Northeast 151 174 3,600  Level Philadelphia TRACON
Mon 06:24:00 PM 39.8126 -74.9547 58° Northeast  Level FlightAware Approximate
Mon 06:31:00 PM 39.9800 -74.6320 51° Northeast  Level FlightAware Approximate
Mon 06:32:00 PM 40.0067 -74.5890 51° Northeast  Level FlightAware Approximate
Mon 06:32:36 PM 40.1000 -74.7000 51° Northeast 147 169 3,600  Level New York TRACON
Mon 06:33:00 PM 40.0335 -74.5459 51° Northeast  Level FlightAware Approximate
Mon 06:33:36 PM 40.1333 -74.6667 37° Northeast 147 169 3,600  Level New York TRACON
Mon 06:34:00 PM 40.0603 -74.5029 51° Northeast  Level FlightAware Approximate
Mon 06:34:36 PM 40.1667 -74.6333 37° Northeast 149 171 3,600  Level New York TRACON
Mon 06:35:00 PM 40.0870 -74.4597 51° Northeast  Level FlightAware Approximate
Mon 06:35:36 PM 40.1833 -74.5833 66° East 153 176 3,600  Level New York TRACON
Mon 06:36:00 PM 40.1138 -74.4166 51° Northeast  Level FlightAware Approximate
Mon 06:36:36 PM 40.2167 -74.5333 49° Northeast 154 177 3,600  Level New York TRACON
Mon 06:37:00 PM 40.1405 -74.3734 51° Northeast  Level FlightAware Approximate
Mon 06:37:36 PM 40.2333 -74.4833 66° East 157 181 3,600  Level New York TRACON
Mon 06:38:00 PM 40.1672 -74.3302 51° Northeast  Level FlightAware Approximate
Mon 06:38:36 PM 40.2500 -74.4500 57° Northeast 151 174 3,600  Level New York TRACON
Mon 06:39:36 PM 40.2667 -74.4000 66° East 152 175 3,600  Level New York TRACON
Mon 06:40:36 PM 40.3000 -74.3500 49° Northeast 157 181 3,600 -250 Level New York TRACON
Mon 06:41:36 PM 40.3167 -74.2833 72° East 164 189 3,100 -400 Descending New York TRACON
Mon 06:42:36 PM 40.3333 -74.2333 66° East 159 183 2,800 -300 Descending New York TRACON
Mon 06:43:36 PM 40.3667 -74.2000 37° Northeast 158 182 2,500 -200 Descending New York TRACON
Mon 06:44:36 PM 40.3833 -74.1500 66° East 156 180 2,400 -250 Descending New York TRACON
Mon 06:45:36 PM 40.4167 -74.1000 49° Northeast 163 188 2,000 -500 Descending New York TRACON
Mon 06:46:36 PM 40.4333 -74.0500 66° East 160 184 1,400 -474 Descending New York TRACON
Mon 06:47:30 PM 40.4667 -74.0167 37° Northeast 154 177 1,100 -316 Descending New York TRACON
Mon 06:48:30 PM 40.4833 -73.9667 66° East 155 178 800 -250 Descending New York TRACON
Mon 06:49:30 PM 40.5167 -73.9333 37° Northeast 153 176 600 -200 Descending New York TRACON
Mon 06:50:30 PM 40.5500 -73.8833 49° Northeast 148 170 400 -100 Descending New York TRACON
Mon 06:51:30 PM 40.5667 -73.8500 57° Northeast 144 166 400  Level New York TRACON
Mon 06:52:36 PM 40.5833 -73.7833 72° East 148 170 400  Level New York TRACON
Mon 06:53:30 PM 40.5667 -73.7333 114° Southeast 149 171 400  Level New York TRACON
Mon 06:54:30 PM 40.5667 -73.6833 90° East 152 175 400  Level New York TRACON
Mon 06:55:31 PM 40.5667 -73.6167 90° East 150 173 400  Level New York TRACON
Mon 06:57:00 PM 40.6070 -73.5586 48° Northeast  Level FlightAware Approximate
Mon 07:04:00 PM 40.7167 -73.4000 60° Northeast  Level FlightAware Approximate
Mon 07:05:00 PM 40.7288 -73.4134 60° Northeast  Level Estimated
Mon 07:06:00 PM 40.7288 -73.4134 60° Northeast  Level Estimated
Mon 07:07:00 PM 40.7288 -73.4134 60° Northeast  Level Estimated

Login

Don't have an account? Register now (free) for customized features, flight alerts, and more!